createdAt,value
2018-06-03T00:00:02.367Z,21.79
2018-06-03T00:01:02.391Z,21.67
2018-06-03T00:02:02.713Z,21.88
2018-06-03T00:03:02.185Z,21.72
2018-06-03T00:04:02.716Z,21.75
2018-06-03T00:05:02.733Z,21.72
2018-06-03T00:06:02.771Z,21.69
2018-06-03T00:07:02.798Z,21.73
2018-06-03T00:08:02.838Z,21.77
2018-06-03T00:09:02.592Z,21.72
2018-06-03T00:10:02.876Z,21.75
2018-06-03T00:11:02.640Z,21.75
2018-06-03T00:12:02.670Z,21.75
2018-06-03T00:13:02.695Z,21.79
2018-06-03T00:14:02.969Z,21.83
2018-06-03T00:15:02.746Z,21.79
2018-06-03T00:16:03.013Z,21.83
2018-06-03T00:17:02.795Z,21.75
2018-06-03T00:18:02.829Z,21.57
2018-06-03T00:19:02.837Z,21.6
2018-06-03T00:20:03.135Z,21.52
2018-06-03T00:21:02.636Z,21.51
2018-06-03T00:22:02.964Z,21.6
2018-06-03T00:23:03.195Z,21.48
2018-06-03T00:24:02.967Z,21.5
2018-06-03T00:25:03.249Z,21.55
2018-06-03T00:26:03.311Z,21.51
2018-06-03T00:27:03.297Z,21.57
2018-06-03T00:28:03.074Z,21.48
2018-06-03T00:29:03.357Z,21.55
2018-06-03T00:30:03.372Z,21.22
2018-06-03T00:31:03.395Z,21.12
2018-06-03T00:32:03.432Z,21.15
2018-06-03T00:33:03.217Z,21.21
2018-06-03T00:34:03.222Z,21.05
2018-06-03T00:35:03.502Z,21.06
2018-06-03T00:36:03.523Z,20.92
2018-06-03T00:37:03.346Z,21.02
2018-06-03T00:38:03.334Z,20.95
2018-06-03T00:39:03.600Z,21.06
2018-06-03T00:40:03.371Z,21
2018-06-03T00:41:03.397Z,20.99
2018-06-03T00:42:03.677Z,21.02
2018-06-03T00:43:03.457Z,21.18
2018-06-03T00:44:03.732Z,21.2
2018-06-03T00:45:03.505Z,21.17
2018-06-03T00:46:03.522Z,21.12
2018-06-03T00:47:03.551Z,21.15
2018-06-03T00:48:03.830Z,21.14
2018-06-03T00:49:03.601Z,21.15
2018-06-03T00:50:03.878Z,21.12
2018-06-03T00:51:03.648Z,21.17
2018-06-03T00:52:04.008Z,21.07
2018-06-03T00:53:03.700Z,21.02
2018-06-03T00:54:03.985Z,20.81
2018-06-03T00:55:04.009Z,20.72
2018-06-03T00:56:04.035Z,20.87
2018-06-03T00:57:03.550Z,20.85
2018-06-03T00:58:04.091Z,20.93
2018-06-03T00:59:04.109Z,20.88
2018-06-03T01:00:03.889Z,20.85
2018-06-03T01:01:03.900Z,20.93
2018-06-03T01:02:04.279Z,20.85
2018-06-03T01:03:03.965Z,20.77
2018-06-03T01:04:03.971Z,20.72
2018-06-03T01:05:04.257Z,20.56
2018-06-03T01:06:04.278Z,20.39
2018-06-03T01:07:04.349Z,20.37
2018-06-03T01:08:04.352Z,20.31
2018-06-03T01:09:04.376Z,20.36
2018-06-03T01:10:04.126Z,20.37
2018-06-03T01:11:04.398Z,20.28
2018-06-03T01:12:04.164Z,20.32
2018-06-03T01:13:04.441Z,20.4
2018-06-03T01:14:04.467Z,20.37
2018-06-03T01:15:04.242Z,20.36
2018-06-03T01:16:04.261Z,20.32
2018-06-03T01:17:04.288Z,20.41
2018-06-03T01:18:04.314Z,20.48
2018-06-03T01:19:04.337Z,20.6
2018-06-03T01:20:04.628Z,20.63
2018-06-03T01:21:04.656Z,20.63
2018-06-03T01:22:04.727Z,20.6
2018-06-03T01:23:04.721Z,20.58
2018-06-03T01:24:04.209Z,20.51
2018-06-03T01:25:04.492Z,20.59
2018-06-03T01:26:04.280Z,20.6
2018-06-03T01:27:04.793Z,20.55
2018-06-03T01:28:04.845Z,20.47
2018-06-03T01:29:04.838Z,20.5
2018-06-03T01:30:04.619Z,20.6
2018-06-03T01:31:04.388Z,20.55
2018-06-03T01:32:04.917Z,20.43
2018-06-03T01:33:04.961Z,20.39
2018-06-03T01:34:04.716Z,20.43
2018-06-03T01:35:04.996Z,20.47
2018-06-03T01:36:05.028Z,20.56
2018-06-03T01:37:04.850Z,20.58
2018-06-03T01:38:04.817Z,20.56
2018-06-03T01:39:05.098Z,20.48
2018-06-03T01:40:04.862Z,20.43
2018-06-03T01:41:05.140Z,20.4
2018-06-03T01:42:04.906Z,20.37
2018-06-03T01:43:04.682Z,20.34
2018-06-03T01:44:05.206Z,20.28
2018-06-03T01:45:04.729Z,20.36
2018-06-03T01:46:05.004Z,20.41
2018-06-03T01:47:05.283Z,20.31
2018-06-03T01:48:05.308Z,20.26
2018-06-03T01:49:05.336Z,20.26
2018-06-03T01:50:05.356Z,20.29
2018-06-03T01:51:05.128Z,20.24
2018-06-03T01:52:05.464Z,20.34
2018-06-03T01:53:05.453Z,20.29
2018-06-03T01:54:05.467Z,20.31
2018-06-03T01:55:05.491Z,20.32
2018-06-03T01:56:05.262Z,20.41
2018-06-03T01:57:05.291Z,20.43
2018-06-03T01:58:05.312Z,20.41
2018-06-03T01:59:05.333Z,20.36
2018-06-03T02:00:05.366Z,20.34
2018-06-03T02:01:05.382Z,20.34
2018-06-03T02:02:05.660Z,20.25
2018-06-03T02:03:05.435Z,20.36
2018-06-03T02:04:05.709Z,20.44
2018-06-03T02:05:05.733Z,20.43
2018-06-03T02:06:05.761Z,20.51
2018-06-03T02:07:05.846Z,20.59
2018-06-03T02:08:05.569Z,20.51
2018-06-03T02:09:05.588Z,20.59
2018-06-03T02:10:05.607Z,20.52
2018-06-03T02:11:05.884Z,20.51
2018-06-03T02:12:05.916Z,20.5
2018-06-03T02:13:05.689Z,20.58
2018-06-03T02:14:05.699Z,20.55
2018-06-03T02:15:05.735Z,20.48
2018-06-03T02:16:05.755Z,20.48
2018-06-03T02:17:05.526Z,20.31
2018-06-03T02:18:05.808Z,20.26
2018-06-03T02:19:06.084Z,20.32
2018-06-03T02:20:05.857Z,20.31
2018-06-03T02:21:05.878Z,20.28
2018-06-03T02:22:06.213Z,20.31
2018-06-03T02:23:05.925Z,20.32
2018-06-03T02:24:06.204Z,20.26
2018-06-03T02:25:05.720Z,20.24
2018-06-03T02:26:06.255Z,20.24
2018-06-03T02:27:06.289Z,20.32
2018-06-03T02:28:06.312Z,20.32
2018-06-03T02:29:06.072Z,20.32
2018-06-03T02:30:06.363Z,20.31
2018-06-03T02:31:05.867Z,20.24
2018-06-03T02:32:06.147Z,20.32
2018-06-03T02:33:06.173Z,20.32
2018-06-03T02:34:06.196Z,20.25
2018-06-03T02:35:06.221Z,20.32
2018-06-03T02:36:06.239Z,20.29
2018-06-03T02:37:06.583Z,20.32
2018-06-03T02:38:06.290Z,20.26
2018-06-03T02:39:06.316Z,20.24
2018-06-03T02:40:06.353Z,20.25
2018-06-03T02:41:06.370Z,20.25
2018-06-03T02:42:06.130Z,20.34
2018-06-03T02:43:06.410Z,20.26
2018-06-03T02:44:06.432Z,20.34
2018-06-03T02:45:06.464Z,20.4
2018-06-03T02:46:06.485Z,20.47
2018-06-03T02:47:06.766Z,20.47
2018-06-03T02:48:06.534Z,20.58
2018-06-03T02:49:06.814Z,20.56
2018-06-03T02:50:06.839Z,20.65
2018-06-03T02:51:06.620Z,20.58
2018-06-03T02:52:06.766Z,20.56
2018-06-03T02:53:06.685Z,20.52
2018-06-03T02:54:06.439Z,20.56
2018-06-03T02:55:06.979Z,20.58
2018-06-03T02:56:06.743Z,20.55
2018-06-03T02:57:06.769Z,20.59
2018-06-03T02:58:06.812Z,20.43
2018-06-03T02:59:07.071Z,20.39
2018-06-03T03:00:07.107Z,20.25
2018-06-03T03:01:07.116Z,20.26
2018-06-03T03:02:06.888Z,20.31
2018-06-03T03:03:06.938Z,20.29
2018-06-03T03:04:07.191Z,20.21
2018-06-03T03:05:06.965Z,20.09
2018-06-03T03:06:06.999Z,20.07
2018-06-03T03:07:07.322Z,20.02
2018-06-03T03:08:07.061Z,20.03
2018-06-03T03:09:07.316Z,20.16
2018-06-03T03:10:07.367Z,20.07
2018-06-03T03:11:07.114Z,20.18
2018-06-03T03:12:06.881Z,20.18
2018-06-03T03:13:07.159Z,20.19
2018-06-03T03:14:06.931Z,20.24
2018-06-03T03:15:07.514Z,20.24
2018-06-03T03:16:07.502Z,20.29
2018-06-03T03:17:07.510Z,20.21
2018-06-03T03:18:07.533Z,20.29
2018-06-03T03:19:07.307Z,20.36
2018-06-03T03:20:07.077Z,20.41
2018-06-03T03:21:07.366Z,20.4
2018-06-03T03:22:07.409Z,20.48
2018-06-03T03:23:07.386Z,20.56
2018-06-03T03:24:07.410Z,20.51
2018-06-03T03:25:07.707Z,20.58
2018-06-03T03:26:07.208Z,20.58
2018-06-03T03:27:07.494Z,20.63
2018-06-03T03:28:07.761Z,20.52
2018-06-03T03:29:07.528Z,20.66
2018-06-03T03:30:07.880Z,20.52
2018-06-03T03:31:07.864Z,20.56
2018-06-03T03:32:07.880Z,20.56
2018-06-03T03:33:07.902Z,20.67
2018-06-03T03:34:07.925Z,20.66
2018-06-03T03:35:07.941Z,20.65
2018-06-03T03:36:07.973Z,20.56
2018-06-03T03:37:07.785Z,20.58
2018-06-03T03:38:08.025Z,20.55
2018-06-03T03:39:07.788Z,20.48
2018-06-03T03:40:07.810Z,20.47
2018-06-03T03:41:08.105Z,20.31
2018-06-03T03:42:08.124Z,20.39
2018-06-03T03:43:07.895Z,20.25
2018-06-03T03:44:07.909Z,20.39
2018-06-03T03:45:07.935Z,20.32
2018-06-03T03:46:07.961Z,20.29
2018-06-03T03:47:07.982Z,20.07
2018-06-03T03:48:08.003Z,20.06
2018-06-03T03:49:07.779Z,19.82
2018-06-03T03:50:08.057Z,19.79
2018-06-03T03:51:08.080Z,19.82
2018-06-03T03:52:08.156Z,19.7
2018-06-03T03:53:08.141Z,19.69
2018-06-03T03:54:08.178Z,19.7
2018-06-03T03:55:08.440Z,19.73
2018-06-03T03:56:07.959Z,19.76
2018-06-03T03:57:08.242Z,19.91
2018-06-03T03:58:08.257Z,19.91
2018-06-03T03:59:08.535Z,20.02
2018-06-03T04:00:08.060Z,19.92
2018-06-03T04:01:08.336Z,20.09
2018-06-03T04:02:08.610Z,20.19
2018-06-03T04:03:08.430Z,20.16
2018-06-03T04:04:08.407Z,20.18
2018-06-03T04:05:08.435Z,20.31
2018-06-03T04:06:08.459Z,20.26
2018-06-03T04:07:08.275Z,20.31
2018-06-03T04:08:08.251Z,20.41
2018-06-03T04:09:08.780Z,20.44
2018-06-03T04:10:08.810Z,20.47
2018-06-03T04:11:08.836Z,20.43
2018-06-03T04:12:08.599Z,20.52
2018-06-03T04:13:08.634Z,20.51
2018-06-03T04:14:08.906Z,20.36
2018-06-03T04:15:08.930Z,20.24
2018-06-03T04:16:08.955Z,20.32
2018-06-03T04:17:08.734Z,20.29
2018-06-03T04:18:08.748Z,20.41
2018-06-03T04:19:08.777Z,20.39
2018-06-03T04:20:09.061Z,20.41
2018-06-03T04:21:09.090Z,20.51
2018-06-03T04:22:09.151Z,20.56
2018-06-03T04:23:09.125Z,20.56
2018-06-03T04:24:08.896Z,20.59
2018-06-03T04:25:08.921Z,20.59
2018-06-03T04:26:09.200Z,20.59
2018-06-03T04:27:09.227Z,20.56
2018-06-03T04:28:09.000Z,20.34
2018-06-03T04:29:09.284Z,20.25
2018-06-03T04:30:09.330Z,20.28
2018-06-03T04:31:08.821Z,20.1
2018-06-03T04:32:09.099Z,20.09
2018-06-03T04:33:09.373Z,20.06
2018-06-03T04:34:09.400Z,20.03
2018-06-03T04:35:09.175Z,19.92
2018-06-03T04:36:09.452Z,19.91
2018-06-03T04:37:09.266Z,19.91
2018-06-03T04:38:09.497Z,20.04
2018-06-03T04:39:09.016Z,20.09
2018-06-03T04:40:09.296Z,20.09
2018-06-03T04:41:09.559Z,20.13
2018-06-03T04:42:09.598Z,20.16
2018-06-03T04:43:09.606Z,20.26
2018-06-03T04:44:09.636Z,20.22
2018-06-03T04:45:09.413Z,20.36
2018-06-03T04:46:09.686Z,20.43
2018-06-03T04:47:09.455Z,20.43
2018-06-03T04:48:09.733Z,20.44
2018-06-03T04:49:09.524Z,20.36
2018-06-03T04:50:09.277Z,20.34
2018-06-03T04:51:09.817Z,20.44
2018-06-03T04:52:09.896Z,20.52
2018-06-03T04:53:09.870Z,20.56
2018-06-03T04:54:09.633Z,20.52
2018-06-03T04:55:10.088Z,20.6
2018-06-03T04:56:09.690Z,20.65
2018-06-03T04:57:09.967Z,20.78
2018-06-03T04:58:09.987Z,20.75
2018-06-03T04:59:09.757Z,20.75
2018-06-03T05:00:09.780Z,20.82
2018-06-03T05:01:10.062Z,20.9
2018-06-03T05:02:09.837Z,20.81
2018-06-03T05:03:09.860Z,20.87
2018-06-03T05:04:10.140Z,20.78
2018-06-03T05:05:10.160Z,20.97
2018-06-03T05:06:10.187Z,20.93
2018-06-03T05:07:10.261Z,20.84
2018-06-03T05:08:09.725Z,20.74
2018-06-03T05:09:09.752Z,20.88
2018-06-03T05:10:10.297Z,20.95
2018-06-03T05:11:10.320Z,20.97
2018-06-03T05:12:09.928Z,21
2018-06-03T05:13:10.369Z,20.99
2018-06-03T05:14:10.131Z,21.03
2018-06-03T05:15:09.902Z,21
2018-06-03T05:16:10.181Z,21.14
2018-06-03T05:17:10.457Z,21.14
2018-06-03T05:18:10.485Z,21.15
2018-06-03T05:19:10.256Z,21.18
2018-06-03T05:20:10.281Z,21.2
2018-06-03T05:21:10.307Z,21.3
2018-06-03T05:22:10.638Z,21.52
2018-06-03T05:23:10.360Z,21.55
2018-06-03T05:24:10.633Z,21.66
2018-06-03T05:25:10.666Z,21.67
2018-06-03T05:26:10.427Z,21.77
2018-06-03T05:27:10.708Z,21.82
2018-06-03T05:28:10.484Z,21.73
2018-06-03T05:29:10.763Z,21.75
2018-06-03T05:30:10.532Z,21.79
2018-06-03T05:31:10.818Z,21.75
2018-06-03T05:32:10.765Z,21.79
2018-06-03T05:33:10.862Z,21.76
2018-06-03T05:34:10.884Z,21.8
2018-06-03T05:35:10.909Z,21.8
2018-06-03T05:36:10.686Z,21.79
2018-06-03T05:37:11.115Z,21.83
2018-06-03T05:38:10.993Z,21.88
2018-06-03T05:39:10.759Z,21.93
2018-06-03T05:40:10.803Z,21.95
2018-06-03T05:41:10.553Z,21.95
2018-06-03T05:42:11.076Z,22
2018-06-03T05:43:11.106Z,21.79
2018-06-03T05:44:10.644Z,21.75
2018-06-03T05:45:11.151Z,21.76
2018-06-03T05:46:11.177Z,21.73
2018-06-03T05:47:11.201Z,21.88
2018-06-03T05:48:11.225Z,22.07
2018-06-03T05:49:11.261Z,22.04
2018-06-03T05:50:11.291Z,22.13
2018-06-03T05:51:11.312Z,22.13
2018-06-03T05:52:11.391Z,22.04
2018-06-03T05:53:11.364Z,22.08
2018-06-03T05:54:11.391Z,22.1
2018-06-03T05:55:11.422Z,22.15
2018-06-03T05:56:11.186Z,22.17
2018-06-03T05:57:11.466Z,22.3
2018-06-03T05:58:11.496Z,22.39
2018-06-03T05:59:11.517Z,22.47
2018-06-03T06:00:11.290Z,22.53
2018-06-03T06:01:11.311Z,22.73
2018-06-03T06:02:11.334Z,22.68
2018-06-03T06:03:11.611Z,22.8
2018-06-03T06:04:11.637Z,22.73
2018-06-03T06:05:11.411Z,22.78
2018-06-03T06:06:11.183Z,22.84
2018-06-03T06:07:11.764Z,22.94
2018-06-03T06:08:11.498Z,22.94
2018-06-03T06:09:11.583Z,23.03
2018-06-03T06:10:11.792Z,22.93
2018-06-03T06:11:11.580Z,22.99
2018-06-03T06:12:11.605Z,22.91
2018-06-03T06:13:11.614Z,23.05
2018-06-03T06:14:11.892Z,23.09
2018-06-03T06:15:11.919Z,23.1
2018-06-03T06:16:11.696Z,23.2
2018-06-03T06:17:11.968Z,23.25
2018-06-03T06:18:11.739Z,23.23
2018-06-03T06:19:11.768Z,23.27
2018-06-03T06:20:11.837Z,23.32
2018-06-03T06:21:12.076Z,23.37
2018-06-03T06:22:11.896Z,23.44
2018-06-03T06:23:11.881Z,23.46
2018-06-03T06:24:11.642Z,23.62
2018-06-03T06:25:12.175Z,23.59
2018-06-03T06:26:11.958Z,23.54
2018-06-03T06:27:12.241Z,23.56
2018-06-03T06:28:11.755Z,23.56
2018-06-03T06:29:12.289Z,23.48
2018-06-03T06:30:12.315Z,23.51
2018-06-03T06:31:12.351Z,23.5
2018-06-03T06:32:13.574Z,23.46
2018-06-03T06:33:12.390Z,23.47
2018-06-03T06:34:11.913Z,23.54
2018-06-03T06:35:12.443Z,23.59
2018-06-03T06:36:12.218Z,23.51
2018-06-03T06:37:12.291Z,23.62
2018-06-03T06:38:12.269Z,23.73
2018-06-03T06:39:12.547Z,23.69
2018-06-03T06:40:12.588Z,23.59
2018-06-03T06:41:12.607Z,23.63
2018-06-03T06:42:12.629Z,23.73
2018-06-03T06:43:12.654Z,23.73
2018-06-03T06:44:12.681Z,23.74
2018-06-03T06:45:12.725Z,23.84
2018-06-03T06:46:12.480Z,23.92
2018-06-03T06:47:12.511Z,23.95
2018-06-03T06:48:12.789Z,23.93
2018-06-03T06:49:12.565Z,24.03
2018-06-03T06:50:13.075Z,23.99
2018-06-03T06:51:12.865Z,23.98
2018-06-03T06:52:12.689Z,23.91
2018-06-03T06:53:12.667Z,23.84
2018-06-03T06:54:12.697Z,23.96
2018-06-03T06:55:12.993Z,23.95
2018-06-03T06:56:12.753Z,23.98
2018-06-03T06:57:13.020Z,23.91
2018-06-03T06:58:13.064Z,24.05
2018-06-03T06:59:13.088Z,24.17
2018-06-03T07:00:13.247Z,24.17
2018-06-03T07:01:13.129Z,24.23
2018-06-03T07:02:12.895Z,24.3
2018-06-03T07:03:12.920Z,24.42
2018-06-03T07:04:12.968Z,24.42
2018-06-03T07:05:12.976Z,24.53
2018-06-03T07:06:13.027Z,24.6
2018-06-03T07:07:13.340Z,24.6
2018-06-03T07:08:13.320Z,24.7
2018-06-03T07:09:13.354Z,24.69
2018-06-03T07:10:13.114Z,24.76
2018-06-03T07:11:13.150Z,24.85
2018-06-03T07:12:13.423Z,24.76
2018-06-03T07:13:13.271Z,24.84
2018-06-03T07:14:13.478Z,24.78
2018-06-03T07:15:13.511Z,24.93
2018-06-03T07:16:13.534Z,25.04
2018-06-03T07:17:13.306Z,25.13
2018-06-03T07:18:13.330Z,25.07
2018-06-03T07:19:13.625Z,25.1
2018-06-03T07:20:13.642Z,25.23
2018-06-03T07:21:13.674Z,25.23
2018-06-03T07:22:13.538Z,25.04
2018-06-03T07:23:13.793Z,24.95
2018-06-03T07:24:13.749Z,25.08
2018-06-03T07:25:13.780Z,25.11
2018-06-03T07:26:13.808Z,25.18
2018-06-03T07:27:13.586Z,25.18
2018-06-03T07:28:13.612Z,25.35
2018-06-03T07:29:13.634Z,25.4
2018-06-03T07:30:13.912Z,25.47
2018-06-03T07:31:13.683Z,25.46
2018-06-03T07:32:13.977Z,25.51
2018-06-03T07:33:13.993Z,25.55
2018-06-03T07:34:14.010Z,25.5
2018-06-03T07:35:14.058Z,25.53
2018-06-03T07:36:14.066Z,25.5
2018-06-03T07:37:13.841Z,25.4
2018-06-03T07:38:13.903Z,25.53
2018-06-03T07:39:13.898Z,25.55
2018-06-03T07:40:14.180Z,25.41
2018-06-03T07:41:13.953Z,25.43
2018-06-03T07:42:14.227Z,25.55
2018-06-03T07:43:14.269Z,25.63
2018-06-03T07:44:14.291Z,25.73
2018-06-03T07:45:14.326Z,25.69
2018-06-03T07:46:14.347Z,25.7
2018-06-03T07:47:14.375Z,25.65
2018-06-03T07:48:14.151Z,25.84
2018-06-03T07:49:14.181Z,25.7
2018-06-03T07:50:14.458Z,25.8
2018-06-03T07:51:14.235Z,25.87
2018-06-03T07:52:14.261Z,25.85
2018-06-03T07:53:14.545Z,25.99
2018-06-03T07:54:14.340Z,25.93
2018-06-03T07:55:14.346Z,26.05
2018-06-03T07:56:14.631Z,26.05
2018-06-03T07:57:14.713Z,26.07
2018-06-03T07:58:14.426Z,26.15
2018-06-03T07:59:14.464Z,26.25
2018-06-03T08:00:14.735Z,26.31
2018-06-03T08:01:14.771Z,26.29
2018-06-03T08:02:14.811Z,26.28
2018-06-03T08:03:14.808Z,26.15
2018-06-03T08:04:14.629Z,26.13
2018-06-03T08:05:14.869Z,26.26
2018-06-03T08:06:14.646Z,26.31
2018-06-03T08:07:14.916Z,26.37
2018-06-03T08:08:14.946Z,26.53
2018-06-03T08:09:14.722Z,26.56
2018-06-03T08:10:14.766Z,26.59
2018-06-03T08:11:14.773Z,26.36
2018-06-03T08:12:15.059Z,26.29
2018-06-03T08:13:15.086Z,26.36
2018-06-03T08:14:15.107Z,26.44
2018-06-03T08:15:14.889Z,26.38
2018-06-03T08:16:14.937Z,26.56
2018-06-03T08:17:15.197Z,26.47
2018-06-03T08:18:15.237Z,26.59
2018-06-03T08:19:15.248Z,26.36
2018-06-03T08:20:15.280Z,26.47
2018-06-03T08:21:14.803Z,26.56
2018-06-03T08:22:15.337Z,26.6
2018-06-03T08:23:15.387Z,26.56
2018-06-03T08:24:15.142Z,26.6
2018-06-03T08:25:15.170Z,26.66
2018-06-03T08:26:15.457Z,26.7
2018-06-03T08:27:15.482Z,26.84
2018-06-03T08:28:15.508Z,26.88
2018-06-03T08:29:15.554Z,26.95
2018-06-03T08:30:15.564Z,26.97
2018-06-03T08:31:15.589Z,26.99
2018-06-03T08:32:15.614Z,27.05
2018-06-03T08:33:15.649Z,26.96
2018-06-03T08:34:15.674Z,26.89
2018-06-03T08:35:15.464Z,26.9
2018-06-03T08:36:15.727Z,26.92
2018-06-03T08:37:15.768Z,26.88
2018-06-03T08:38:15.788Z,27.03
2018-06-03T08:39:15.970Z,27.1
2018-06-03T08:40:15.333Z,27.07
2018-06-03T08:41:15.614Z,27.22
2018-06-03T08:42:15.908Z,27.27
2018-06-03T08:43:15.680Z,27.22
2018-06-03T08:44:15.696Z,27.25
2018-06-03T08:45:15.991Z,27.27
2018-06-03T08:46:16.012Z,27.44
2018-06-03T08:47:16.037Z,27.33
2018-06-03T08:48:16.066Z,27.37
2018-06-03T08:49:16.103Z,27.49
2018-06-03T08:50:15.868Z,27.45
2018-06-03T08:51:16.152Z,27.65
2018-06-03T08:52:16.237Z,27.71
2018-06-03T08:53:15.954Z,27.86
2018-06-03T08:54:15.980Z,27.78
2018-06-03T08:55:16.010Z,27.74
2018-06-03T08:56:16.041Z,27.95
2018-06-03T08:57:16.071Z,28.07
2018-06-03T08:58:16.412Z,28.25
2018-06-03T08:59:16.379Z,28.01
2018-06-03T09:00:16.408Z,27.95
2018-06-03T09:01:16.433Z,27.96
2018-06-03T09:02:16.206Z,28.05
2018-06-03T09:03:16.235Z,28.12
2018-06-03T09:04:16.271Z,28.45
2018-06-03T09:05:16.543Z,28.39
2018-06-03T09:06:16.582Z,28.47
2018-06-03T09:07:16.604Z,28.44
2018-06-03T09:08:16.637Z,28.54
2018-06-03T09:09:16.681Z,28.66
2018-06-03T09:10:16.698Z,28.64
2018-06-03T09:11:16.725Z,28.52
2018-06-03T09:12:16.509Z,28.39
2018-06-03T09:13:16.865Z,28.39
2018-06-03T09:14:16.555Z,28.44
2018-06-03T09:15:16.840Z,28.56
2018-06-03T09:16:16.862Z,28.6
2018-06-03T09:17:16.643Z,28.63
2018-06-03T09:18:16.924Z,28.78
2018-06-03T09:19:16.438Z,28.76
2018-06-03T09:20:16.971Z,28.72
2018-06-03T09:21:16.761Z,28.76
2018-06-03T09:22:17.036Z,28.78
2018-06-03T09:23:16.814Z,28.79
2018-06-03T09:24:17.137Z,28.98
2018-06-03T09:25:17.263Z,29.12
2018-06-03T09:26:17.162Z,29.19
2018-06-03T09:27:16.927Z,29.14
2018-06-03T09:28:16.711Z,29.27
2018-06-03T09:29:17.248Z,29.14
2018-06-03T09:30:17.280Z,29.17
2018-06-03T09:31:17.304Z,29.19
2018-06-03T09:32:17.085Z,29.32
2018-06-03T09:33:17.112Z,29.47
2018-06-03T09:34:17.392Z,29.59
2018-06-03T09:35:17.170Z,29.68
2018-06-03T09:36:17.222Z,29.78
2018-06-03T09:37:17.485Z,29.57
2018-06-03T09:38:17.260Z,29.61
2018-06-03T09:39:17.555Z,29.61
2018-06-03T09:40:17.307Z,29.69
2018-06-03T09:41:17.604Z,29.9
2018-06-03T09:42:17.620Z,29.88
2018-06-03T09:43:17.396Z,30.03
2018-06-03T09:44:17.732Z,30.3
2018-06-03T09:45:17.715Z,30.66
2018-06-03T09:46:17.745Z,30.97
2018-06-03T09:47:17.773Z,31.36
2018-06-03T09:48:17.810Z,31.74
2018-06-03T09:49:17.837Z,31.99
2018-06-03T09:50:17.872Z,32.18
2018-06-03T09:51:17.899Z,32.55
2018-06-03T09:52:17.927Z,32.93
2018-06-03T09:53:17.786Z,33.27
2018-06-03T09:54:17.990Z,33.47
2018-06-03T09:55:17.772Z,33.69
2018-06-03T09:56:18.062Z,33.47
2018-06-03T09:57:18.085Z,33.67
2018-06-03T09:58:17.861Z,34.01
2018-06-03T09:59:18.148Z,34.17
2018-06-03T10:00:18.289Z,34.14
2018-06-03T10:01:18.207Z,34.45
2018-06-03T10:02:18.246Z,34.54
2018-06-03T10:03:18.291Z,34.61
2018-06-03T10:04:18.313Z,34.67
2018-06-03T10:05:18.349Z,34.95
2018-06-03T10:06:18.371Z,34.93
2018-06-03T10:07:18.400Z,35.23
2018-06-03T10:08:17.924Z,35.51
2018-06-03T10:09:18.218Z,35.53
2018-06-03T10:10:18.655Z,35.78
2018-06-03T10:11:18.534Z,36.08
2018-06-03T10:12:18.578Z,36.4
2018-06-03T10:13:18.369Z,36.7
2018-06-03T10:14:18.645Z,36.96
2018-06-03T10:15:18.673Z,36.99
2018-06-03T10:16:18.592Z,36.95
2018-06-03T10:17:18.491Z,36.92
2018-06-03T10:18:18.608Z,36.84
2018-06-03T10:19:18.555Z,36.54
2018-06-03T10:20:18.587Z,36.31
2018-06-03T10:21:18.624Z,35.86
2018-06-03T10:22:18.669Z,35.63
2018-06-03T10:23:18.947Z,35.41
2018-06-03T10:24:18.985Z,35.31
2018-06-03T10:25:18.763Z,34.95
2018-06-03T10:26:19.070Z,34.51
2018-06-03T10:27:19.081Z,34.51
2018-06-03T10:28:19.115Z,34.47
2018-06-03T10:29:18.899Z,34.3
2018-06-03T10:30:18.931Z,34.03
2018-06-03T10:31:19.213Z,33.83
2018-06-03T10:32:19.259Z,33.71
2018-06-03T10:33:19.106Z,33.95
2018-06-03T10:34:19.325Z,34.36
2018-06-03T10:35:19.345Z,34.55
2018-06-03T10:36:19.379Z,34.4
2018-06-03T10:37:19.414Z,34.55
2018-06-03T10:38:19.494Z,35.05
2018-06-03T10:39:19.222Z,34.93
2018-06-03T10:40:19.504Z,34.9
2018-06-03T10:41:19.281Z,34.4
2018-06-03T10:42:19.304Z,34.32
2018-06-03T10:43:19.605Z,34.78
2018-06-03T10:44:19.381Z,35.55
2018-06-03T10:45:19.414Z,36.14
2018-06-03T10:46:19.445Z,36.35
2018-06-03T10:47:19.735Z,36.79
2018-06-03T10:48:19.825Z,37.1
2018-06-03T10:49:19.545Z,37.58
2018-06-03T10:50:19.838Z,37.8
2018-06-03T10:51:19.870Z,37.96
2018-06-03T10:52:19.897Z,38.23
2018-06-03T10:53:19.693Z,38.01
2018-06-03T10:54:20.080Z,37.94
2018-06-03T10:55:20.004Z,38.26
2018-06-03T10:56:19.778Z,38.69
2018-06-03T10:57:20.085Z,39.04
2018-06-03T10:58:19.857Z,39.33
2018-06-03T10:59:20.147Z,39.8
2018-06-03T11:00:20.179Z,40.14
2018-06-03T11:01:20.205Z,39.75
2018-06-03T11:02:19.987Z,39.58
2018-06-03T11:03:20.080Z,39.83
2018-06-03T11:04:20.314Z,39.7
2018-06-03T11:05:20.107Z,39.24
2018-06-03T11:06:20.129Z,38.91
2018-06-03T11:07:20.421Z,38.45
2018-06-03T11:08:20.213Z,37.94
2018-06-03T11:09:19.989Z,37.59
2018-06-03T11:10:20.529Z,37.94
2018-06-03T11:11:20.563Z,38.19
2018-06-03T11:12:20.602Z,37.65
2018-06-03T11:13:20.626Z,37.08
2018-06-03T11:14:20.789Z,36.98
2018-06-03T11:15:20.448Z,36.7
2018-06-03T11:16:20.731Z,36.65
2018-06-03T11:17:20.763Z,36.57
2018-06-03T11:18:20.850Z,36.73
2018-06-03T11:19:20.837Z,37.13
2018-06-03T11:20:20.868Z,37.82
2018-06-03T11:21:20.901Z,38.33
2018-06-03T11:22:20.941Z,38.83
2018-06-03T11:23:20.974Z,39.18
2018-06-03T11:24:20.757Z,39.53
2018-06-03T11:25:21.097Z,40
2018-06-03T11:26:21.074Z,40.23
2018-06-03T11:27:20.852Z,40.34
2018-06-03T11:28:21.148Z,40.59
2018-06-03T11:29:21.182Z,40.72
2018-06-03T11:30:21.211Z,40.11
2018-06-03T11:31:20.998Z,39.85
2018-06-03T11:32:21.032Z,39.93
2018-06-03T11:33:21.376Z,39.92
2018-06-03T11:34:21.353Z,40.08
2018-06-03T11:35:21.400Z,40.2
2018-06-03T11:36:21.176Z,40.51
2018-06-03T11:37:21.452Z,40.69
2018-06-03T11:38:21.479Z,41.28
2018-06-03T11:39:21.522Z,41.6
2018-06-03T11:40:21.303Z,41.91
2018-06-03T11:41:21.605Z,41.72
2018-06-03T11:42:21.626Z,41.75
2018-06-03T11:43:21.664Z,42.25
2018-06-03T11:44:21.447Z,42.31
2018-06-03T11:45:21.732Z,42.25
2018-06-03T11:46:21.766Z,42.67
2018-06-03T11:47:21.553Z,43.23
2018-06-03T11:48:21.991Z,43.18
2018-06-03T11:49:21.625Z,43.39
2018-06-03T11:50:21.919Z,43.07
2018-06-03T11:51:21.699Z,43.36
2018-06-03T11:52:21.740Z,43.46
2018-06-03T11:53:21.775Z,43.68
2018-06-03T11:54:21.812Z,43.98
2018-06-03T11:55:21.857Z,44.2
2018-06-03T11:56:22.136Z,43.73
2018-06-03T11:57:22.198Z,42.69
2018-06-03T11:58:22.270Z,41.78
2018-06-03T11:59:22.259Z,41.29
2018-06-03T12:00:22.300Z,40.72
2018-06-03T12:01:22.339Z,40.06
2018-06-03T12:02:22.373Z,39.44
2018-06-03T12:03:21.946Z,39.07
2018-06-03T12:04:22.438Z,38.74
2018-06-03T12:05:22.475Z,38.2
2018-06-03T12:06:22.512Z,38.24
2018-06-03T12:07:22.554Z,37.97
2018-06-03T12:08:22.671Z,38.64
2018-06-03T12:09:22.368Z,39.17
2018-06-03T12:10:22.658Z,39.34
2018-06-03T12:11:22.688Z,39.3
2018-06-03T12:12:22.720Z,39.85
2018-06-03T12:13:22.503Z,40.68
2018-06-03T12:14:22.800Z,41.59
2018-06-03T12:15:22.591Z,41.97
2018-06-03T12:16:22.607Z,42.53
2018-06-03T12:17:22.903Z,42.67
2018-06-03T12:18:22.738Z,42.63
2018-06-03T12:19:22.723Z,42.82
2018-06-03T12:20:23.007Z,42.81
2018-06-03T12:21:23.045Z,43.5
2018-06-03T12:22:23.077Z,43.77
2018-06-03T12:23:23.141Z,43.77
2018-06-03T12:24:23.151Z,43.43
2018-06-03T12:25:22.933Z,43.2
2018-06-03T12:26:22.968Z,43.24
2018-06-03T12:27:23.258Z,43.16
2018-06-03T12:28:23.506Z,43.35
2018-06-03T12:29:23.333Z,43.72
2018-06-03T12:30:23.113Z,44.36
2018-06-03T12:31:23.399Z,44.17
2018-06-03T12:32:23.442Z,43.62
2018-06-03T12:33:23.474Z,44.03
2018-06-03T12:34:23.534Z,44.55
2018-06-03T12:35:23.550Z,44.64
2018-06-03T12:36:23.584Z,44.81
2018-06-03T12:37:23.642Z,44.79
2018-06-03T12:38:23.421Z,45.15
2018-06-03T12:39:23.448Z,44.81
2018-06-03T12:40:23.478Z,43.77
2018-06-03T12:41:23.512Z,43.72
2018-06-03T12:42:23.805Z,43.35
2018-06-03T12:43:23.648Z,43.04
2018-06-03T12:44:23.624Z,42.19
2018-06-03T12:45:23.917Z,41.74
2018-06-03T12:46:23.956Z,41.43
2018-06-03T12:47:23.739Z,41.04
2018-06-03T12:48:24.033Z,40.5
2018-06-03T12:49:24.068Z,39.86
2018-06-03T12:50:23.849Z,39.6
2018-06-03T12:51:24.144Z,39.51
2018-06-03T12:52:23.970Z,38.58
2018-06-03T12:53:23.953Z,38.09
2018-06-03T12:54:23.987Z,38.11
2018-06-03T12:55:24.023Z,38.73